Time;durP1;ratioP1;P1;durP2;ratioP2;P2;SDS_P1;SDS_P2;PMS_P1;PMS_P2;Temp;Humidity;BMP_temperature;BMP_pressure;BME280_temperature;BME280_humidity;BME280_pressure;Samples;Min_cycle;Max_cycle;Signal;HPM_P1;HPM_P2
2022/03/02 00:02:06;;;;;;;22.02;14.40;;;;;;;2.91;68.28;101437.17;1760897;80;21017;-68
2022/03/02 00:04:33;;;;;;;22.15;13.90;;;;;;;2.92;68.33;101430.89;1753948;80;21197;-68
2022/03/02 00:07:06;;;;;;;20.45;13.13;;;;;;;2.89;68.33;101421.52;1757315;79;21099;-68
2022/03/02 00:09:33;;;;;;;21.00;13.38;;;;;;;2.88;68.38;101413.29;1756584;80;20993;-68
2022/03/02 00:12:00;;;;;;;21.57;13.15;;;;;;;2.89;68.40;101421.52;1761084;80;21059;-68
2022/03/02 00:14:28;;;;;;;22.93;13.60;;;;;;;2.89;68.40;101414.10;1752614;80;21067;-69
2022/03/02 00:16:59;;;;;;;21.12;14.00;;;;;;;2.88;68.44;101404.56;1719691;82;21140;-68
2022/03/02 00:19:27;;;;;;;;;;;;;;;2.88;68.47;101401.92;1692924;83;21099;-69
2022/03/02 00:21:54;;;;;;;20.72;13.32;;;;;;;2.86;68.46;101398.64;1696328;83;20179;-67
2022/03/02 00:24:26;;;;;;;21.65;13.13;;;;;;;2.84;68.54;101396.70;1712541;82;20981;-68
2022/03/02 00:27:00;;;;;;;22.25;13.32;;;;;;;2.80;68.54;101389.16;1701425;82;21013;-67
2022/03/02 00:29:30;;;;;;;22.55;14.13;;;;;;;2.78;68.64;101380.60;1750673;79;22168;-68
2022/03/02 00:31:59;;;;;;;22.17;12.23;;;;;;;2.78;68.71;101384.55;1756091;80;21103;-67
2022/03/02 00:34:27;;;;;;;19.07;11.60;;;;;;;2.84;68.75;101383.01;1682500;83;20985;-68
2022/03/02 00:36:56;;;;;;;22.10;14.07;;;;;;;2.85;68.74;101378.55;1704872;82;21711;-68
2022/03/02 00:39:23;;;;;;;22.17;13.38;;;;;;;2.83;68.78;101373.47;1708364;82;21148;-69
2022/03/02 00:41:51;;;;;;;23.45;13.93;;;;;;;2.81;68.78;101366.23;1711722;83;21219;-67
2022/03/02 00:44:18;;;;;;;22.80;13.30;;;;;;;2.81;68.82;101364.91;1708225;83;21221;-67
2022/03/02 00:46:45;;;;;;;22.00;13.25;;;;;;;2.78;68.88;101362.64;1710791;83;21704;-68
2022/03/02 00:49:13;;;;;;;25.48;14.35;;;;;;;2.76;68.95;101354.08;1709407;83;20962;-67
2022/03/02 00:51:40;;;;;;;21.57;13.60;;;;;;;2.77;69.04;101358.38;1707185;83;21102;-68
2022/03/02 00:54:08;;;;;;;23.67;13.65;;;;;;;2.77;69.10;101362.33;1700842;83;21811;-68
2022/03/02 00:56:38;;;;;;;26.93;15.68;;;;;;;2.78;69.13;101354.22;1706934;82;21032;-68
2022/03/02 00:59:08;;;;;;;22.85;13.55;;;;;;;2.78;69.17;101346.81;1706697;83;21075;-69
2022/03/02 01:01:35;;;;;;;24.18;14.05;;;;;;;2.76;69.25;101343.05;1689552;84;21087;-69
2022/03/02 01:04:04;;;;;;;26.85;14.43;;;;;;;2.77;69.30;101346.50;1753812;80;20980;-69
2022/03/02 01:06:38;;;;;;;27.05;15.23;;;;;;;2.78;69.36;101345.49;1760530;80;21048;-67
2022/03/02 01:09:08;;;;;;;27.98;15.25;;;;;;;2.80;69.43;101351.41;1757014;80;21392;-66
2022/03/02 01:11:37;;;;;;;28.70;15.90;;;;;;;2.81;69.44;101341.98;1757186;80;20957;-68
2022/03/02 01:14:04;;;;;;;26.65;15.00;;;;;;;2.82;69.50;101342.79;1755961;81;20969;-68
2022/03/02 01:16:33;;;;;;;25.05;14.65;;;;;;;2.83;69.53;101339.17;1751257;81;21083;-68
2022/03/02 01:19:00;;;;;;;30.70;16.17;;;;;;;2.82;69.57;101334.87;1760353;81;21526;-69
2022/03/02 01:21:33;;;;;;;29.55;17.07;;;;;;;2.81;69.68;101333.25;1759990;81;21067;-68
2022/03/02 01:24:05;;;;;;;32.10;17.05;;;;;;;2.82;69.75;101327.77;1746276;80;21547;-68
2022/03/02 01:26:32;;;;;;;31.75;16.45;;;;;;;2.83;69.84;101327.30;1690066;83;21103;-68
2022/03/02 01:28:59;;;;;;;27.48;15.75;;;;;;;2.85;69.98;101321.81;1692667;83;20972;-68
2022/03/02 01:31:26;;;;;;;27.75;14.93;;;;;;;2.82;70.10;101319.05;1764753;80;21522;-67
2022/03/02 01:33:53;;;;;;;29.12;16.07;;;;;;;2.81;70.27;101318.73;1759123;80;21059;-67
2022/03/02 01:36:20;;;;;;;31.73;16.10;;;;;;;2.77;70.47;101316.16;1688396;83;21055;-68
2022/03/02 01:38:47;;;;;;;31.57;16.48;;;;;;;2.75;70.66;101311.56;1734403;80;21015;-68
2022/03/02 01:41:18;;;;;;;32.15;16.67;;;;;;;2.73;70.84;101315.73;1756861;80;21027;-68
2022/03/02 01:43:45;;;;;;;31.85;16.73;;;;;;;2.74;71.00;101314.71;1758056;80;21149;-67
2022/03/02 01:46:13;;;;;;;34.88;18.23;;;;;;;2.77;71.15;101315.66;1759258;79;21409;-67
2022/03/02 01:48:40;;;;;;;30.17;16.75;;;;;;;2.76;71.29;101309.23;1760839;80;21047;-68
2022/03/02 01:51:07;;;;;;;39.03;19.57;;;;;;;2.74;71.47;101310.75;1752242;80;21651;-68
2022/03/02 01:53:36;;;;;;;35.58;18.27;;;;;;;2.73;71.64;101309.61;1757290;80;21664;-67
2022/03/02 01:56:05;;;;;;;35.68;19.55;;;;;;;2.72;71.78;101301.39;1761308;79;21432;-69
2022/03/02 01:58:32;;;;;;;33.35;17.00;;;;;;;2.73;71.89;101303.02;1760984;80;21617;-67
2022/03/02 02:00:59;;;;;;;38.17;20.05;;;;;;;2.75;72.00;101306.30;1757667;80;21012;-68
2022/03/02 02:03:27;;;;;;;38.08;18.62;;;;;;;2.74;72.05;101299.39;1759308;79;21048;-68
2022/03/02 02:05:55;;;;;;;33.95;16.65;;;;;;;2.73;72.13;101301.69;1756956;80;21015;-69
2022/03/02 02:08:23;;;;;;;43.00;20.32;;;;;;;2.75;72.24;101301.02;1689271;83;21170;-69
2022/03/02 02:10:50;;;;;;;33.75;17.42;;;;;;;2.74;72.29;101300.20;1707529;82;21095;-69
2022/03/02 02:13:18;;;;;;;34.03;18.48;;;;;;;2.75;72.37;101297.87;1706286;83;21624;-68
2022/03/02 02:15:47;;;;;;;37.60;19.00;;;;;;;2.74;72.41;101300.20;1704877;82;21060;-69
2022/03/02 02:18:14;;;;;;;38.33;19.70;;;;;;;2.75;72.50;101287.83;1705479;82;21043;-68
2022/03/02 02:20:41;;;;;;;41.40;19.75;;;;;;;2.71;72.57;101288.70;1700882;83;21848;-68
2022/03/02 02:23:08;;;;;;;40.75;20.85;;;;;;;2.72;72.62;101286.88;1761278;80;21073;-67
2022/03/02 02:25:36;;;;;;;42.00;21.02;;;;;;;2.75;72.69;101286.50;1755125;80;33547;-68
2022/03/02 02:28:02;;;;;;;38.67;19.17;;;;;;;2.78;72.71;101279.54;1755385;80;21043;-68
2022/03/02 02:30:30;;;;;;;40.65;20.37;;;;;;;2.80;72.70;101278.36;1758999;80;20973;-68
2022/03/02 02:32:57;;;;;;;34.90;18.57;;;;;;;2.79;72.68;101278.52;1693493;83;21127;-67
2022/03/02 02:35:25;;;;;;;40.48;19.65;;;;;;;2.77;72.70;101279.23;1697271;82;21532;-67
2022/03/02 02:37:52;;;;;;;39.90;19.57;;;;;;;2.75;72.75;101281.23;1723857;82;20966;-69
2022/03/02 02:40:20;;;;;;;41.23;20.48;;;;;;;2.72;72.81;101274.50;1677448;84;21026;-68
2022/03/02 02:42:47;;;;;;;39.85;19.65;;;;;;;2.74;72.89;101280.92;1760039;80;21610;-68
2022/03/02 02:45:20;;;;;;;37.90;19.40;;;;;;;2.75;72.95;101272.00;1757445;81;22122;-68
2022/03/02 02:47:53;;;;;;;39.10;20.08;;;;;;;2.69;73.04;101265.64;1760914;81;21043;-68
2022/03/02 02:50:21;;;;;;;;;;;;;;;2.66;73.14;101267.84;1760372;80;21039;-68
2022/03/02 02:52:49;;;;;;;44.70;20.17;;;;;;;2.67;73.21;101258.94;1756100;80;20182;-68
2022/03/02 02:55:16;;;;;;;44.53;21.40;;;;;;;2.68;73.30;101258.74;1758439;80;20980;-68
2022/03/02 02:57:43;;;;;;;41.85;20.23;;;;;;;2.69;73.24;101248.50;1691608;82;21136;-69
2022/03/02 03:00:14;;;;;;;42.67;21.35;;;;;;;2.71;73.24;101247.81;1701741;83;21558;-69
2022/03/02 03:02:42;;;;;;;42.45;19.90;;;;;;;2.70;73.26;101246.20;1702202;83;21067;-69
2022/03/02 03:05:14;;;;;;;42.30;20.57;;;;;;;2.70;73.27;101240.08;1705435;82;21111;-69
2022/03/02 03:07:42;;;;;;;44.90;22.15;;;;;;;2.69;73.35;101233.17;1759147;80;21633;-68
2022/03/02 03:10:14;;;;;;;45.20;21.85;;;;;;;2.66;73.36;101235.68;1760413;80;22076;-68
2022/03/02 03:12:42;;;;;;;40.00;19.82;;;;;;;2.64;73.38;101239.03;1758827;80;21076;-67
2022/03/02 03:15:11;;;;;;;43.00;20.05;;;;;;;2.63;73.44;101237.88;1756142;80;21098;-68
2022/03/02 03:17:39;;;;;;;48.48;22.32;;;;;;;2.65;73.47;101231.92;1760899;80;21096;-68
2022/03/02 03:20:08;;;;;;;40.00;20.37;;;;;;;2.66;73.47;101224.32;1760255;80;21056;-68
2022/03/02 03:22:35;;;;;;;40.65;20.77;;;;;;;2.63;73.46;101227.33;1757963;80;21824;-69
2022/03/02 03:25:05;;;;;;;44.08;21.65;;;;;;;2.62;73.49;101235.75;1755991;80;20989;-69
2022/03/02 03:27:33;;;;;;;42.50;19.57;;;;;;;2.63;73.49;101226.02;1760091;79;21019;-69
2022/03/02 03:30:00;;;;;;;41.53;19.98;;;;;;;2.64;73.52;101223.71;1761008;81;21082;-70
2022/03/02 03:32:27;;;;;;;47.60;22.95;;;;;;;2.62;73.49;101221.75;1759510;80;21041;-69
2022/03/02 03:34:53;;;;;;;41.63;20.60;;;;;;;2.59;73.58;101223.75;1758030;80;21816;-69
2022/03/02 03:37:21;;;;;;;45.83;21.25;;;;;;;2.62;73.63;101215.16;1762646;80;21071;-69
2022/03/02 03:39:48;;;;;;;44.18;20.95;;;;;;;2.58;73.60;101216.84;1757327;80;21119;-68
2022/03/02 03:42:15;;;;;;;41.00;19.32;;;;;;;2.58;73.66;101215.53;1762155;80;21119;-69
2022/03/02 03:44:42;;;;;;;42.38;20.52;;;;;;;2.61;73.66;101208.26;1690367;83;21018;-70
2022/03/02 03:47:09;;;;;;;43.85;20.75;;;;;;;2.63;73.63;101200.45;1715949;82;21218;-69
2022/03/02 03:49:37;;;;;;;44.73;22.40;;;;;;;2.67;73.59;101196.96;1756970;80;20955;-69
2022/03/02 03:52:06;;;;;;;41.77;20.12;;;;;;;2.67;73.56;101198.28;1758711;80;21145;-69
2022/03/02 03:54:33;;;;;;;37.40;18.62;;;;;;;2.70;73.55;101196.55;1759558;80;21098;-69
2022/03/02 03:57:00;;;;;;;40.00;20.23;;;;;;;2.72;73.50;101191.92;1758257;80;21510;-68
2022/03/02 03:59:27;;;;;;;40.63;21.45;;;;;;;2.69;73.40;101189.15;1762101;80;21083;-69
2022/03/02 04:01:54;;;;;;;38.53;19.85;;;;;;;2.68;73.44;101185.39;1755615;80;20986;-69
2022/03/02 04:04:22;;;;;;;43.65;21.33;;;;;;;2.67;73.44;101185.09;1757510;80;21047;-68
2022/03/02 04:06:50;;;;;;;39.55;19.87;;;;;;;2.67;73.45;101179.31;1759111;80;21091;-68
2022/03/02 04:09:17;;;;;;;41.35;20.77;;;;;;;2.70;73.46;101174.13;1687831;83;21141;-69
2022/03/02 04:11:44;;;;;;;41.95;19.87;;;;;;;2.70;73.41;101169.70;1693678;83;21087;-68
2022/03/02 04:14:11;;;;;;;44.05;21.45;;;;;;;2.70;73.39;101170.17;1716694;83;21531;-69
2022/03/02 04:16:37;;;;;;;39.13;18.12;;;;;;;2.69;73.36;101169.37;1760790;80;21023;-70
2022/03/02 04:19:06;;;;;;;35.40;18.62;;;;;;;2.68;73.34;101162.47;1761103;81;21064;-69
2022/03/02 04:21:33;;;;;;;40.17;20.02;;;;;;;2.68;73.36;101164.30;1749853;81;21052;-69
2022/03/02 04:24:00;;;;;;;44.35;21.17;;;;;;;2.67;73.35;101162.16;1751388;80;21182;-69
2022/03/02 04:26:27;;;;;;;37.93;19.12;;;;;;;2.67;73.38;101163.48;1759132;80;21178;-70
2022/03/02 04:28:54;;;;;;;37.17;19.73;;;;;;;2.65;73.44;101162.03;1758867;80;21036;-70
2022/03/02 04:31:24;;;;;;;39.30;18.95;;;;;;;2.63;73.49;101166.67;1758030;80;21004;-67
2022/03/02 04:33:51;;;;;;;39.85;20.23;;;;;;;2.59;73.55;101161.77;1747075;80;21024;-69
2022/03/02 04:36:18;;;;;;;36.80;18.57;;;;;;;2.56;73.65;101156.88;1692261;83;21484;-69
2022/03/02 04:38:46;;;;;;;38.38;19.23;;;;;;;2.54;73.72;101150.99;1707163;82;21099;-69
2022/03/02 04:41:13;;;;;;;38.80;19.85;;;;;;;2.54;73.72;101153.62;1705509;82;21013;-69
2022/03/02 04:43:40;;;;;;;40.00;20.88;;;;;;;2.52;73.79;101151.67;1758775;80;21202;-69
2022/03/02 04:46:06;;;;;;;36.48;18.85;;;;;;;2.51;73.81;101151.37;1760546;80;21056;-69
2022/03/02 04:48:34;;;;;;;36.38;18.62;;;;;;;2.53;73.86;101145.89;1689621;83;21513;-69
2022/03/02 04:51:01;;;;;;;41.95;20.90;;;;;;;2.54;73.90;101153.62;1710436;82;21012;-68
2022/03/02 04:53:30;;;;;;;35.15;17.25;;;;;;;2.54;73.90;101150.99;1759179;80;21036;-69
2022/03/02 04:55:57;;;;;;;34.90;18.92;;;;;;;2.57;74.00;101149.80;1760969;79;21079;-69
2022/03/02 04:58:26;;;;;;;36.95;19.12;;;;;;;2.57;73.95;101148.48;1756668;80;21023;-69
2022/03/02 05:00:53;;;;;;;38.88;19.80;;;;;;;2.54;73.92;101152.31;1756592;80;21053;-68
2022/03/02 05:03:20;;;;;;;36.15;20.20;;;;;;;2.52;74.00;101152.98;1757557;80;21634;-68
2022/03/02 05:05:47;;;;;;;42.38;21.10;;;;;;;2.50;74.08;101161.61;1756678;80;21586;-69
2022/03/02 05:08:14;;;;;;;39.55;19.77;;;;;;;2.48;74.18;101156.20;1694513;82;21079;-69
2022/03/02 05:10:41;;;;;;;42.23;21.90;;;;;;;2.49;74.27;101153.36;1697628;82;21570;-68
2022/03/02 05:13:09;;;;;;;40.15;19.77;;;;;;;2.51;74.27;101161.11;1705480;82;21611;-68
2022/03/02 05:15:38;;;;;;;38.45;19.92;;;;;;;2.54;74.36;101166.00;1707527;82;21500;-67
2022/03/02 05:18:05;;;;;;;39.75;19.80;;;;;;;2.54;74.30;101154.95;1760872;80;20985;-67
2022/03/02 05:20:32;;;;;;;41.73;22.02;;;;;;;2.56;74.31;101164.78;1759634;80;21074;-69
2022/03/02 05:22:59;;;;;;;39.10;20.10;;;;;;;2.58;74.30;101160.15;1758987;80;21072;-67
2022/03/02 05:25:26;;;;;;;40.88;20.60;;;;;;;2.59;74.30;101156.50;1762036;80;21091;-67
2022/03/02 05:27:53;;;;;;;39.92;20.02;;;;;;;2.63;74.31;101150.84;1758764;80;21012;-69
2022/03/02 05:30:20;;;;;;;36.70;19.52;;;;;;;2.71;74.31;101149.41;1760681;80;21534;-69
2022/03/02 05:32:50;;;;;;;36.42;18.70;;;;;;;2.75;74.19;101146.70;1751298;80;21389;-68
2022/03/02 05:35:17;;;;;;;39.55;20.50;;;;;;;2.75;74.08;101143.55;1757687;80;21387;-67
2022/03/02 05:37:46;;;;;;;36.30;19.20;;;;;;;2.76;74.04;101141.25;1757690;79;21504;-68
2022/03/02 05:40:17;;;;;;;36.68;18.87;;;;;;;2.81;74.03;101151.21;1757090;79;20985;-68
2022/03/02 05:42:44;;;;;;;35.35;17.77;;;;;;;2.84;73.94;101156.11;1758374;79;21090;-68
2022/03/02 05:45:11;;;;;;;36.03;19.90;;;;;;;2.84;73.89;101152.16;1686845;83;21047;-67
2022/03/02 05:47:41;;;;;;;38.80;20.30;;;;;;;2.78;73.81;101150.27;1691882;83;21629;-69
2022/03/02 05:50:09;;;;;;;38.02;20.17;;;;;;;2.76;73.91;101147.84;1755973;80;21532;-67
2022/03/02 05:52:38;;;;;;;32.88;17.07;;;;;;;2.80;73.95;101151.72;1756183;80;21032;-67
2022/03/02 05:55:06;;;;;;;31.80;17.25;;;;;;;2.85;73.94;101144.54;1688571;83;21568;-68
2022/03/02 05:57:34;;;;;;;37.73;18.62;;;;;;;2.89;73.88;101143.14;1722347;82;21096;-68
2022/03/02 06:00:01;;;;;;;32.95;16.87;;;;;;;2.92;73.85;101138.80;1716269;83;21030;-67
2022/03/02 06:02:30;;;;;;;31.90;18.12;;;;;;;2.94;73.78;101140.76;1759261;80;21233;-68
2022/03/02 06:04:57;;;;;;;33.33;18.32;;;;;;;2.95;73.71;101143.70;1692130;82;21036;-69
2022/03/02 06:07:24;;;;;;;33.92;18.05;;;;;;;2.94;73.67;101142.08;1703948;82;21037;-69
2022/03/02 06:09:51;;;;;;;32.08;16.95;;;;;;;2.92;73.68;101145.40;1704450;82;21063;-69
2022/03/02 06:12:19;;;;;;;34.67;18.75;;;;;;;2.89;73.76;101148.42;1707165;82;21048;-68
2022/03/02 06:14:52;;;;;;;34.73;18.32;;;;;;;2.88;73.79;101149.95;1702042;82;21131;-68
2022/03/02 06:17:19;;;;;;;33.05;17.85;;;;;;;2.91;73.89;101148.25;1760293;80;21072;-68
2022/03/02 06:19:47;;;;;;;34.40;18.45;;;;;;;2.95;73.90;101139.74;1688868;83;21595;-68
2022/03/02 06:22:16;;;;;;;32.42;17.05;;;;;;;2.99;73.77;101146.77;1704834;82;21091;-69
2022/03/02 06:24:44;;;;;;;34.27;17.73;;;;;;;3.01;73.75;101142.94;1756495;80;21077;-69
2022/03/02 06:27:13;;;;;;;33.80;17.17;;;;;;;3.02;73.74;101137.96;1715774;82;21167;-69
2022/03/02 06:29:40;;;;;;;31.52;17.98;;;;;;;3.07;73.73;101140.03;1756165;80;21483;-69
2022/03/02 06:32:08;;;;;;;29.40;17.67;;;;;;;3.09;73.52;101138.52;1756055;80;21852;-69
2022/03/02 06:34:35;;;;;;;28.23;15.50;;;;;;;3.03;73.51;101134.33;1756700;80;21043;-69
2022/03/02 06:37:03;;;;;;;32.98;18.12;;;;;;;3.03;73.58;101134.33;1689991;83;21113;-68
2022/03/02 06:39:30;;;;;;;31.70;16.62;;;;;;;3.07;73.54;101136.08;1756646;81;21567;-69
2022/03/02 06:42:21;;;;;;;30.02;16.82;;;;;;;3.09;73.45;101123.48;1754328;81;21777;-69
2022/03/02 06:44:55;;;;;;;29.85;16.30;;;;;;;3.13;73.42;101131.35;1750209;81;21039;-70
2022/03/02 06:47:32;;;;;;;30.92;17.35;;;;;;;3.16;73.29;101127.48;1718397;83;21069;-69
2022/03/02 06:50:09;;;;;;;34.25;18.07;;;;;;;3.12;73.30;101124.42;1706474;83;21432;-68
2022/03/02 06:52:43;;;;;;;31.93;15.95;;;;;;;3.13;73.27;101119.98;1675954;83;21138;-68
2022/03/02 06:55:16;;;;;;;32.30;16.20;;;;;;;3.18;73.32;101122.84;1758104;80;21036;-68
2022/03/02 06:57:52;;;;;;;29.07;16.57;;;;;;;3.17;73.22;101115.43;1751974;80;20995;-71
2022/03/02 07:00:23;;;;;;;33.08;17.12;;;;;;;3.12;73.22;101110.41;1758819;80;21090;-68
2022/03/02 07:02:53;;;;;;;35.60;17.92;;;;;;;3.07;73.38;101107.56;1756163;80;21016;-67
2022/03/02 07:05:26;;;;;;;37.03;18.80;;;;;;;3.04;73.52;101110.88;1742417;81;21861;-70
2022/03/02 07:08:05;;;;;;;32.78;17.80;;;;;;;3.04;73.63;101106.92;1756720;80;21012;-68
2022/03/02 07:10:35;;;;;;;31.42;16.77;;;;;;;3.08;73.75;101109.18;1757440;80;21586;-69
2022/03/02 07:13:05;;;;;;;34.10;17.23;;;;;;;3.12;73.86;101103.30;1760726;80;21550;-71
2022/03/02 07:15:35;;;;;;;32.50;16.73;;;;;;;3.20;73.91;101104.48;1759316;80;20996;-69
2022/03/02 07:18:03;;;;;;;32.50;17.55;;;;;;;3.22;73.89;101109.55;1690653;83;21131;-69
2022/03/02 07:20:31;;;;;;;34.08;17.98;;;;;;;3.29;73.94;101105.13;1755656;80;20972;-71
2022/03/02 07:22:59;;;;;;;32.42;16.95;;;;;;;3.33;73.92;101102.94;1689494;83;21095;-69
2022/03/02 07:25:29;;;;;;;32.15;16.62;;;;;;;3.36;73.84;101103.87;1706342;82;21056;-70
2022/03/02 07:27:58;;;;;;;32.73;17.87;;;;;;;3.38;73.69;101105.78;1704556;82;21041;-69
2022/03/02 07:30:26;;;;;;;31.42;16.52;;;;;;;3.40;73.72;101101.94;1704495;82;21114;-70
2022/03/02 07:33:01;;;;;;;29.72;16.15;;;;;;;3.43;73.83;101096.78;1751505;79;21047;-68
2022/03/02 07:35:35;;;;;;;30.80;16.97;;;;;;;3.47;73.71;101104.11;1754598;80;20993;-70
2022/03/02 07:38:05;;;;;;;25.92;14.28;;;;;;;3.44;73.62;101102.37;1756060;80;21059;-70
2022/03/02 07:40:33;;;;;;;27.90;15.68;;;;;;;3.43;73.59;101096.27;1756651;80;21038;-69
2022/03/02 07:43:00;;;;;;;28.25;15.83;;;;;;;3.44;73.55;101092.61;1755753;79;21131;-69
2022/03/02 07:45:28;;;;;;;27.82;15.60;;;;;;;3.44;73.54;101093.94;1758741;79;21002;-69
2022/03/02 07:47:57;;;;;;;28.98;16.23;;;;;;;3.45;73.57;101091.59;1691309;83;21141;-69
2022/03/02 07:50:25;;;;;;;29.65;16.20;;;;;;;3.44;73.59;101090.48;1706740;82;21519;-70
2022/03/02 07:52:53;;;;;;;31.52;15.85;;;;;;;3.45;73.65;101088.95;1756454;80;21027;-68
2022/03/02 07:55:20;;;;;;;29.42;16.65;;;;;;;3.49;73.72;101090.72;1759542;80;21114;-69
2022/03/02 07:57:52;;;;;;;26.80;14.83;;;;;;;3.51;73.72;101084.20;1756223;80;21830;-70
2022/03/02 08:00:19;;;;;;;26.00;14.55;;;;;;;3.53;73.72;101085.34;1757078;80;21072;-69
2022/03/02 08:02:46;;;;;;;24.05;13.45;;;;;;;3.51;73.64;101081.56;1754970;79;21079;-70
2022/03/02 08:05:13;;;;;;;26.45;14.05;;;;;;;3.53;73.67;101084.83;1760593;80;21049;-70
2022/03/02 08:07:41;;;;;;;25.77;14.50;;;;;;;3.55;73.65;101079.34;1754620;80;22006;-71
2022/03/02 08:10:08;;;;;;;29.18;15.85;;;;;;;3.59;73.64;101073.19;1744175;80;21435;-68
2022/03/02 08:12:37;;;;;;;33.40;17.55;;;;;;;3.61;73.67;101068.50;1752303;80;21056;-70
2022/03/02 08:15:06;;;;;;;26.62;14.33;;;;;;;3.69;73.79;101068.34;1693564;83;21084;-70
2022/03/02 08:17:37;;;;;;;25.05;14.33;;;;;;;3.78;73.54;101068.95;1711614;82;21552;-70
2022/03/02 08:20:08;;;;;;;26.70;13.70;;;;;;;3.82;73.46;101065.73;1703679;82;21112;-68
2022/03/02 08:22:36;;;;;;;23.42;13.78;;;;;;;3.91;73.50;101064.51;1678475;83;20996;-68
2022/03/02 08:25:10;;;;;;;23.00;12.80;;;;;;;4.04;73.44;101060.27;1689496;83;21110;-69
2022/03/02 08:27:45;;;;;;;21.97;12.13;;;;;;;4.15;73.11;101051.76;1691320;83;21040;-69
2022/03/02 08:30:12;;;;;;;21.35;11.22;;;;;;;4.16;72.84;101049.41;1711786;83;21597;-71
2022/03/02 08:32:45;;;;;;;20.85;12.03;;;;;;;4.20;72.73;101051.44;1758911;81;21566;-70
2022/03/02 08:35:13;;;;;;;18.98;11.95;;;;;;;4.24;72.64;101046.55;1752644;81;21146;-70
2022/03/02 08:37:41;;;;;;;20.37;11.68;;;;;;;4.28;72.42;101038.55;1756756;80;21078;-70
2022/03/02 08:40:14;;;;;;;22.20;10.82;;;;;;;4.32;72.24;101038.95;1755963;80;21173;-70
2022/03/02 08:42:41;;;;;;;19.82;11.15;;;;;;;4.36;72.04;101042.29;1758755;80;21035;-69
2022/03/02 08:45:08;;;;;;;18.82;11.48;;;;;;;4.34;71.81;101036.38;1760489;80;21543;-68
2022/03/02 08:47:35;;;;;;;18.45;10.32;;;;;;;4.34;71.78;101039.02;1756102;80;21032;-70
2022/03/02 08:50:04;;;;;;;18.70;10.70;;;;;;;4.39;71.86;101028.66;1715474;83;21024;-70
2022/03/02 08:52:33;;;;;;;17.05;9.75;;;;;;;4.44;71.78;101022.74;1710350;83;21048;-70
2022/03/02 08:55:04;;;;;;;18.45;10.50;;;;;;;4.51;71.77;101028.87;1756122;80;21065;-69
2022/03/02 08:57:33;;;;;;;19.07;10.60;;;;;;;4.58;71.76;101024.89;1757549;80;22083;-69
2022/03/02 09:00:06;;;;;;;19.00;10.45;;;;;;;4.61;71.74;101023.16;1689443;83;21611;-69
2022/03/02 09:02:33;;;;;;;19.17;10.68;;;;;;;4.63;71.66;101019.27;1703488;83;21145;-70
2022/03/02 09:05:01;;;;;;;17.80;9.88;;;;;;;4.60;71.44;101022.84;1749304;80;21039;-69
2022/03/02 09:07:29;;;;;;;18.98;10.58;;;;;;;4.54;71.30;101021.84;1754344;79;21075;-70
2022/03/02 09:09:56;;;;;;;17.95;10.58;;;;;;;4.48;71.23;101019.21;1753390;80;21121;-69
2022/03/02 09:12:23;;;;;;;17.02;9.83;;;;;;;4.39;71.27;101016.77;1756045;80;21592;-70
2022/03/02 09:14:50;;;;;;;18.85;10.03;;;;;;;4.39;71.37;101012.80;1755220;79;21052;-69
2022/03/02 09:17:24;;;;;;;20.50;11.05;;;;;;;4.42;71.43;101014.22;1753644;80;21063;-69
2022/03/02 09:19:48;;;;;;;20.70;10.82;;;;;;;4.47;71.56;101013.08;1755385;79;21048;-70
2022/03/02 09:22:15;;;;;;;20.70;10.72;;;;;;;4.50;71.60;101006.58;1694145;83;21518;-70
2022/03/02 09:24:43;;;;;;;19.92;10.85;;;;;;;4.55;71.66;101006.27;1685057;83;21123;-71
2022/03/02 09:27:11;;;;;;;18.50;9.68;;;;;;;4.61;71.59;101013.91;1715529;83;21064;-70
2022/03/02 09:29:42;;;;;;;18.35;9.33;;;;;;;4.67;71.58;101008.59;1732070;80;20990;-70
2022/03/02 09:32:09;;;;;;;17.50;9.98;;;;;;;4.74;71.37;101003.29;1755725;80;21507;-69
2022/03/02 09:34:36;;;;;;;18.05;9.90;;;;;;;4.75;71.22;101003.58;1754790;80;21125;-71
2022/03/02 09:37:04;;;;;;;18.35;9.68;;;;;;;4.78;71.28;101001.84;1698767;80;20999;-69
2022/03/02 09:39:31;;;;;;;20.57;10.15;;;;;;;4.83;71.20;100998.05;1689599;83;21069;-70
2022/03/02 09:42:04;;;;;;;22.00;9.80;;;;;;;4.83;70.86;100999.37;1739624;80;21079;-71
2022/03/02 09:44:50;;;;;;;20.70;10.50;;;;;;;4.84;70.98;101000.21;1751019;80;21080;-68
2022/03/02 09:47:20;;;;;;;21.70;11.18;;;;;;;4.86;70.96;100994.18;1757792;80;21037;-69
2022/03/02 09:49:51;;;;;;;;;;;;;;;4.89;71.12;100990.61;1759284;80;21000;-69
2022/03/02 09:52:20;;;;;;;22.82;10.45;;;;;;;4.99;71.22;100988.03;1760190;80;20204;-69
2022/03/02 09:54:56;;;;;;;15.83;8.38;;;;;;;5.05;71.40;100978.74;1759996;80;20985;-71
2022/03/02 09:57:23;;;;;;;18.92;9.18;;;;;;;5.18;71.39;100975.23;1760244;80;21063;-70
2022/03/02 09:59:55;;;;;;;16.90;9.43;;;;;;;5.25;70.84;100965.41;1756359;80;21579;-70
2022/03/02 10:02:38;;;;;;;17.07;9.48;;;;;;;5.31;70.82;100966.41;1758896;80;21104;-70
2022/03/02 10:05:11;;;;;;;18.75;9.83;;;;;;;5.37;70.83;100957.11;1754595;80;21063;-70
2022/03/02 10:07:45;;;;;;;16.02;9.45;;;;;;;5.48;70.45;100956.13;1748987;80;21119;-70
2022/03/02 10:10:18;;;;;;;17.92;9.50;;;;;;;5.46;69.92;100946.24;1757677;80;21535;-70
2022/03/02 10:12:47;;;;;;;18.95;10.08;;;;;;;5.41;69.84;100941.59;1758253;80;21476;-70
2022/03/02 10:15:14;;;;;;;17.05;9.65;;;;;;;5.42;69.72;100940.56;1690085;83;21163;-70
2022/03/02 10:17:44;;;;;;;17.35;9.80;;;;;;;5.48;69.55;100941.55;1690765;83;21083;-69
2022/03/02 10:20:14;;;;;;;17.55;8.85;;;;;;;5.57;69.25;100932.33;1750945;80;20981;-69
2022/03/02 10:23:06;;;;;;;15.15;8.38;;;;;;;5.72;69.69;100928.83;1767411;80;20983;-69
2022/03/02 10:26:18;;;;;;;15.50;8.80;;;;;;;5.95;69.72;100928.80;1750433;80;21158;-68
2022/03/02 10:29:12;;;;;;;12.25;7.03;;;;;;;6.04;69.06;100921.67;1760145;80;21083;-72
2022/03/02 10:31:54;;;;;;;14.47;8.25;;;;;;;6.10;68.16;100912.85;1757297;80;20984;-70
2022/03/02 10:34:32;;;;;;;12.23;6.97;;;;;;;6.05;67.71;100910.55;1757370;80;21595;-70
2022/03/02 10:37:19;;;;;;;14.80;7.55;;;;;;;5.95;67.31;100909.72;1689285;83;21031;-72
2022/03/02 10:40:16;;;;;;;16.25;7.80;;;;;;;5.85;67.55;100905.39;1689874;83;21179;-70
2022/03/02 10:42:57;;;;;;;13.18;6.90;;;;;;;5.70;67.91;100904.92;1703499;83;21611;-70
2022/03/02 10:45:46;;;;;;;14.40;8.00;;;;;;;5.58;68.08;100896.84;1703681;82;21644;-71
2022/03/02 10:48:38;;;;;;;13.85;7.53;;;;;;;5.55;68.45;100893.30;1706812;82;21040;-69
2022/03/02 10:51:06;;;;;;;12.10;7.10;;;;;;;5.62;68.92;100891.41;1679033;82;22144;-70
2022/03/02 10:53:36;;;;;;;11.08;6.20;;;;;;;5.72;68.46;100885.10;1700105;83;21083;-68
2022/03/02 10:56:05;;;;;;;12.53;6.53;;;;;;;5.72;67.94;100876.34;1746030;80;21118;-70
2022/03/02 10:58:33;;;;;;;14.40;7.58;;;;;;;5.68;68.00;100875.97;1739034;81;21102;-69
2022/03/02 11:01:00;;;;;;;16.97;8.65;;;;;;;5.57;67.86;100878.81;1700593;84;21289;-69
2022/03/02 11:03:29;;;;;;;16.48;8.50;;;;;;;5.34;68.07;100879.39;1744961;81;21087;-72
2022/03/02 11:05:59;;;;;;;14.68;7.90;;;;;;;5.18;68.60;100875.92;1754374;80;21163;-70
2022/03/02 11:08:26;;;;;;;14.00;7.53;;;;;;;5.14;69.10;100869.44;1736828;80;21059;-70
2022/03/02 11:10:53;;;;;;;14.40;7.80;;;;;;;5.11;69.30;100875.16;1754898;80;21071;-69
2022/03/02 11:13:20;;;;;;;13.50;7.22;;;;;;;5.05;69.44;100865.42;1755483;80;21122;-69
2022/03/02 11:16:00;;;;;;;13.03;7.17;;;;;;;4.99;69.57;100866.27;1755721;80;21043;-69
2022/03/02 11:18:48;;;;;;;13.48;6.72;;;;;;;4.99;69.90;100868.91;1752420;80;21015;-71
2022/03/02 11:21:14;;;;;;;12.73;7.33;;;;;;;4.97;70.05;100857.71;1749928;80;21071;-69
2022/03/02 11:23:52;;;;;;;13.05;7.03;;;;;;;5.00;70.35;100858.13;1688284;83;21732;-70
2022/03/02 11:26:27;;;;;;;14.30;7.20;;;;;;;5.05;70.51;100846.88;1755475;80;21051;-70
2022/03/02 11:29:02;;;;;;;12.82;7.55;;;;;;;5.14;70.63;100841.64;1756017;80;21044;-71
2022/03/02 11:31:32;;;;;;;12.45;7.12;;;;;;;5.22;70.54;100843.20;1754935;80;21336;-68